createdAt,value
2018-08-16T00:00:10.267Z,0
2018-08-16T00:01:10.838Z,0
2018-08-16T00:02:11.426Z,0
2018-08-16T00:03:11.988Z,0
2018-08-16T00:04:12.536Z,0
2018-08-16T00:05:13.087Z,0
2018-08-16T00:06:13.640Z,0
2018-08-16T00:07:14.193Z,0
2018-08-16T00:08:14.737Z,0
2018-08-16T00:09:15.282Z,0
2018-08-16T00:10:15.834Z,0
2018-08-16T00:11:16.383Z,0
2018-08-16T00:12:16.931Z,0
2018-08-16T00:13:17.483Z,0
2018-08-16T00:14:18.030Z,0
2018-08-16T00:15:18.589Z,0
2018-08-16T00:16:19.137Z,0
2018-08-16T00:17:19.678Z,0
2018-08-16T00:18:20.235Z,0
2018-08-16T00:19:20.785Z,0
2018-08-16T00:20:21.338Z,0
2018-08-16T00:21:21.891Z,0
2018-08-16T00:22:22.435Z,0
2018-08-16T00:23:22.993Z,0
2018-08-16T00:24:23.543Z,0
2018-08-16T00:25:24.098Z,0
2018-08-16T00:26:24.662Z,0
2018-08-16T00:27:25.205Z,0
2018-08-16T00:28:25.752Z,0
2018-08-16T00:29:26.305Z,0
2018-08-16T00:30:26.880Z,0
2018-08-16T00:31:27.403Z,0
2018-08-16T00:32:27.949Z,0
2018-08-16T00:33:28.495Z,0
2018-08-16T00:34:29.050Z,0
2018-08-16T00:35:29.602Z,0
2018-08-16T00:36:30.150Z,0
2018-08-16T00:37:30.704Z,0
2018-08-16T00:38:31.254Z,0
2018-08-16T00:39:31.808Z,0
2018-08-16T00:40:32.359Z,0
2018-08-16T00:41:32.917Z,0
2018-08-16T00:42:33.469Z,0
2018-08-16T00:43:34.018Z,0
2018-08-16T00:44:34.571Z,0
2018-08-16T00:45:35.119Z,0
2018-08-16T00:46:35.674Z,0
2018-08-16T00:47:36.232Z,0
2018-08-16T00:48:36.787Z,0
2018-08-16T00:49:37.351Z,0
2018-08-16T00:50:37.902Z,0
2018-08-16T00:51:38.456Z,0
2018-08-16T00:52:39.008Z,0
2018-08-16T00:53:39.563Z,0
2018-08-16T00:54:40.146Z,0
2018-08-16T00:55:40.666Z,0
2018-08-16T00:56:41.213Z,0
2018-08-16T00:57:41.767Z,0
2018-08-16T00:58:42.314Z,0
2018-08-16T00:59:42.864Z,0
2018-08-16T01:00:43.410Z,0
2018-08-16T01:01:43.956Z,0
2018-08-16T01:02:44.510Z,0
2018-08-16T01:03:45.063Z,0
2018-08-16T01:04:45.615Z,0
2018-08-16T01:05:46.167Z,0
2018-08-16T01:06:46.723Z,0
2018-08-16T01:07:47.269Z,0
2018-08-16T01:08:47.823Z,0
2018-08-16T01:09:48.377Z,0
2018-08-16T01:10:48.931Z,0
2018-08-16T01:11:49.484Z,0
2018-08-16T01:12:50.037Z,0
2018-08-16T01:13:50.590Z,0
2018-08-16T01:14:51.142Z,0
2018-08-16T01:15:51.697Z,0
2018-08-16T01:16:52.252Z,0
2018-08-16T01:17:52.800Z,0
2018-08-16T01:18:53.355Z,0
2018-08-16T01:19:53.902Z,0
2018-08-16T01:20:54.458Z,0
2018-08-16T01:21:55.009Z,0
2018-08-16T01:22:55.565Z,0
2018-08-16T01:23:56.114Z,0
2018-08-16T01:24:56.685Z,0
2018-08-16T01:25:57.218Z,0
2018-08-16T01:26:57.768Z,0
2018-08-16T01:27:58.321Z,0
2018-08-16T01:28:58.866Z,0
2018-08-16T01:29:59.422Z,0
2018-08-16T01:30:59.968Z,0
2018-08-16T01:32:00.541Z,0
2018-08-16T01:33:01.070Z,0
2018-08-16T01:34:01.625Z,0
2018-08-16T01:35:02.181Z,0
2018-08-16T01:36:02.734Z,0
2018-08-16T01:37:03.280Z,0
2018-08-16T01:38:03.836Z,0
2018-08-16T01:39:04.387Z,0
2018-08-16T01:40:04.934Z,0
2018-08-16T01:41:05.487Z,0
2018-08-16T01:42:06.041Z,0
2018-08-16T01:43:06.591Z,0
2018-08-16T01:44:07.151Z,0
2018-08-16T01:45:07.702Z,0
2018-08-16T01:46:08.259Z,0
2018-08-16T01:47:08.809Z,0
2018-08-16T01:48:09.354Z,0
2018-08-16T01:49:09.900Z,0
2018-08-16T01:50:10.445Z,0
2018-08-16T01:51:10.997Z,0
2018-08-16T01:52:11.544Z,0
2018-08-16T01:53:12.098Z,0
2018-08-16T01:54:12.650Z,0
2018-08-16T01:55:13.194Z,0
2018-08-16T01:56:13.739Z,0
2018-08-16T01:57:14.294Z,0
2018-08-16T01:58:14.841Z,0
2018-08-16T01:59:15.390Z,0
2018-08-16T02:00:15.942Z,0
2018-08-16T02:01:16.497Z,0
2018-08-16T02:02:17.043Z,0
2018-08-16T02:03:17.597Z,0
2018-08-16T02:04:18.188Z,0
2018-08-16T02:05:18.755Z,0
2018-08-16T02:06:19.235Z,0
2018-08-16T02:07:19.792Z,0
2018-08-16T02:08:20.342Z,0
2018-08-16T02:09:20.893Z,0
2018-08-16T02:10:21.445Z,0
2018-08-16T02:11:22.001Z,0
2018-08-16T02:12:22.556Z,0
2018-08-16T02:13:23.112Z,0
2018-08-16T02:14:23.668Z,0
2018-08-16T02:15:24.218Z,0
2018-08-16T02:16:24.770Z,0
2018-08-16T02:17:25.323Z,0
2018-08-16T02:18:25.877Z,0
2018-08-16T02:19:26.427Z,0
2018-08-16T02:20:26.981Z,0
2018-08-16T02:21:27.535Z,0
2018-08-16T02:22:28.100Z,0
2018-08-16T02:23:28.640Z,0
2018-08-16T02:24:29.184Z,0
2018-08-16T02:25:29.741Z,0
2018-08-16T02:26:30.291Z,0
2018-08-16T02:27:30.846Z,0
2018-08-16T02:28:31.389Z,0
2018-08-16T02:29:31.935Z,0
2018-08-16T02:30:32.486Z,0
2018-08-16T02:31:33.037Z,0
2018-08-16T02:32:33.590Z,0
2018-08-16T02:33:34.164Z,0
2018-08-16T02:34:34.694Z,0
2018-08-16T02:35:35.247Z,0
2018-08-16T02:36:35.806Z,0
2018-08-16T02:37:36.353Z,0
2018-08-16T02:38:36.906Z,0
2018-08-16T02:39:37.458Z,0
2018-08-16T02:40:38.006Z,0
2018-08-16T02:41:38.562Z,0
2018-08-16T02:42:39.117Z,0
2018-08-16T02:43:39.665Z,0
2018-08-16T02:44:40.213Z,0
2018-08-16T02:45:40.765Z,0
2018-08-16T02:46:41.312Z,0
2018-08-16T02:47:41.867Z,0
2018-08-16T02:48:42.421Z,0
2018-08-16T02:49:42.972Z,0
2018-08-16T02:50:43.528Z,0
2018-08-16T02:51:44.079Z,0
2018-08-16T02:52:44.632Z,0
2018-08-16T02:53:45.176Z,0
2018-08-16T02:54:45.730Z,0
2018-08-16T02:55:46.290Z,0
2018-08-16T02:56:46.842Z,0
2018-08-16T02:57:47.400Z,0
2018-08-16T02:58:47.944Z,0
2018-08-16T02:59:48.501Z,0
2018-08-16T03:00:49.049Z,0
2018-08-16T03:01:49.608Z,0
2018-08-16T03:02:50.158Z,0
2018-08-16T03:03:50.712Z,0
2018-08-16T03:04:51.261Z,0
2018-08-16T03:05:51.816Z,0
2018-08-16T03:06:52.357Z,0
2018-08-16T03:07:52.936Z,0
2018-08-16T03:08:53.467Z,0
2018-08-16T03:09:54.011Z,0
2018-08-16T03:10:54.563Z,0
2018-08-16T03:11:55.114Z,0
2018-08-16T03:12:55.664Z,0
2018-08-16T03:13:56.208Z,0
2018-08-16T03:14:56.749Z,0
2018-08-16T03:15:57.296Z,0
2018-08-16T03:16:57.849Z,0
2018-08-16T03:17:58.401Z,0
2018-08-16T03:18:58.960Z,0
2018-08-16T03:19:59.508Z,0
2018-08-16T03:21:00.062Z,0
2018-08-16T03:22:00.612Z,0
2018-08-16T03:23:01.167Z,0
2018-08-16T03:24:01.721Z,0
2018-08-16T03:25:02.274Z,0
2018-08-16T03:26:02.826Z,0
2018-08-16T03:27:03.379Z,0
2018-08-16T03:28:03.934Z,0
2018-08-16T03:29:04.476Z,0
2018-08-16T03:30:05.028Z,0
2018-08-16T03:31:05.573Z,0
2018-08-16T03:32:06.127Z,0
2018-08-16T03:33:06.683Z,0
2018-08-16T03:34:07.232Z,0
2018-08-16T03:35:07.787Z,0
2018-08-16T03:36:08.375Z,0
2018-08-16T03:37:08.890Z,0
2018-08-16T03:38:09.436Z,0
2018-08-16T03:39:09.988Z,0
2018-08-16T03:40:10.540Z,0
2018-08-16T03:41:11.093Z,0
2018-08-16T03:42:11.643Z,0
2018-08-16T03:43:12.200Z,0
2018-08-16T03:44:12.752Z,0
2018-08-16T03:45:13.300Z,0
2018-08-16T03:46:13.845Z,0
2018-08-16T03:47:14.392Z,0
2018-08-16T03:48:14.965Z,0
2018-08-16T03:49:15.490Z,0
2018-08-16T03:50:16.043Z,0
2018-08-16T03:51:16.587Z,0
2018-08-16T03:52:17.139Z,0
2018-08-16T03:53:17.700Z,0
2018-08-16T03:54:18.244Z,0
2018-08-16T03:55:18.799Z,0
2018-08-16T03:56:19.350Z,0
2018-08-16T03:57:19.900Z,0
2018-08-16T03:58:20.451Z,0
2018-08-16T03:59:20.998Z,0
2018-08-16T04:00:21.556Z,0
2018-08-16T04:01:22.110Z,0
2018-08-16T04:02:22.664Z,0
2018-08-16T04:03:23.218Z,0
2018-08-16T04:04:23.771Z,0
2018-08-16T04:05:24.323Z,0
2018-08-16T04:06:24.878Z,0
2018-08-16T04:07:25.437Z,0
2018-08-16T04:08:25.988Z,0
2018-08-16T04:09:26.534Z,0
2018-08-16T04:10:27.081Z,0
2018-08-16T04:11:27.637Z,0
2018-08-16T04:12:28.192Z,0
2018-08-16T04:13:28.747Z,0
2018-08-16T04:14:29.302Z,0
2018-08-16T04:15:29.851Z,5
2018-08-16T04:16:30.404Z,5
2018-08-16T04:17:30.950Z,5
2018-08-16T04:18:31.515Z,5
2018-08-16T04:19:32.065Z,5
2018-08-16T04:20:32.613Z,5
2018-08-16T04:21:33.176Z,5
2018-08-16T04:22:33.721Z,10
2018-08-16T04:23:34.342Z,10
2018-08-16T04:24:34.839Z,10
2018-08-16T04:25:35.387Z,10
2018-08-16T04:26:35.946Z,10
2018-08-16T04:27:36.492Z,15
2018-08-16T04:28:37.041Z,15
2018-08-16T04:29:37.598Z,15
2018-08-16T04:30:38.154Z,20
2018-08-16T04:31:38.710Z,20
2018-08-16T04:32:39.269Z,20
2018-08-16T04:33:39.821Z,20
2018-08-16T04:34:40.404Z,25
2018-08-16T04:35:40.962Z,25
2018-08-16T04:36:41.490Z,25
2018-08-16T04:37:42.039Z,30
2018-08-16T04:38:42.597Z,30
2018-08-16T04:39:43.150Z,30
2018-08-16T04:40:43.711Z,35
2018-08-16T04:41:44.468Z,35
2018-08-16T04:42:44.826Z,40
2018-08-16T04:43:45.380Z,40
2018-08-16T04:44:45.940Z,40
2018-08-16T04:45:46.493Z,45
2018-08-16T04:46:47.045Z,45
2018-08-16T04:47:47.603Z,50
2018-08-16T04:48:48.163Z,50
2018-08-16T04:49:48.717Z,50
2018-08-16T04:50:49.268Z,55
2018-08-16T04:51:49.825Z,55
2018-08-16T04:52:50.373Z,55
2018-08-16T04:53:50.930Z,60
2018-08-16T04:54:51.489Z,60
2018-08-16T04:55:52.046Z,60
2018-08-16T04:56:52.671Z,65
2018-08-16T04:57:53.154Z,65
2018-08-16T04:58:53.738Z,70
2018-08-16T04:59:54.294Z,70
2018-08-16T05:00:54.849Z,75
2018-08-16T05:01:55.409Z,80
2018-08-16T05:02:55.962Z,75
2018-08-16T05:03:56.513Z,80
2018-08-16T05:04:57.069Z,80
2018-08-16T05:05:57.628Z,80
2018-08-16T05:06:58.177Z,85
2018-08-16T05:07:58.733Z,85
2018-08-16T05:08:59.292Z,90
2018-08-16T05:09:59.844Z,90
2018-08-16T05:11:00.450Z,95
2018-08-16T05:12:00.956Z,100
2018-08-16T05:13:01.517Z,100
2018-08-16T05:14:02.075Z,105
2018-08-16T05:15:02.633Z,110
2018-08-16T05:16:03.197Z,125
2018-08-16T05:17:03.781Z,115
2018-08-16T05:18:04.343Z,110
2018-08-16T05:19:04.907Z,110
2018-08-16T05:20:05.463Z,115
2018-08-16T05:21:06.013Z,115
2018-08-16T05:22:06.568Z,115
2018-08-16T05:23:07.131Z,120
2018-08-16T05:24:07.689Z,125
2018-08-16T05:25:08.244Z,135
2018-08-16T05:26:08.809Z,145
2018-08-16T05:27:09.372Z,130
2018-08-16T05:28:09.952Z,150
2018-08-16T05:29:10.504Z,180
2018-08-16T05:30:11.065Z,190
2018-08-16T05:31:11.622Z,195
2018-08-16T05:32:12.191Z,195
2018-08-16T05:33:12.752Z,200
2018-08-16T05:34:13.310Z,200
2018-08-16T05:35:13.870Z,205
2018-08-16T05:36:14.441Z,215
2018-08-16T05:37:15.007Z,220
2018-08-16T05:38:15.573Z,225
2018-08-16T05:39:16.136Z,225
2018-08-16T05:40:16.703Z,230
2018-08-16T05:41:17.262Z,235
2018-08-16T05:42:17.828Z,240
2018-08-16T05:43:18.465Z,245
2018-08-16T05:44:18.952Z,245
2018-08-16T05:45:19.517Z,255
2018-08-16T05:46:20.084Z,260
2018-08-16T05:47:20.651Z,265
2018-08-16T05:48:21.217Z,265
2018-08-16T05:49:21.784Z,270
2018-08-16T05:50:22.360Z,275
2018-08-16T05:51:22.924Z,280
2018-08-16T05:52:23.491Z,265
2018-08-16T05:53:24.062Z,205
2018-08-16T05:54:24.630Z,185
2018-08-16T05:55:25.191Z,210
2018-08-16T05:56:25.760Z,270
2018-08-16T05:57:26.328Z,300
2018-08-16T05:58:26.896Z,305
2018-08-16T05:59:27.528Z,310
2018-08-16T06:00:28.024Z,315
2018-08-16T06:01:28.588Z,320
2018-08-16T06:02:29.154Z,325
2018-08-16T06:03:29.723Z,325
2018-08-16T06:04:30.285Z,305
2018-08-16T06:05:30.847Z,245
2018-08-16T06:06:31.414Z,210
2018-08-16T06:07:32.049Z,275
2018-08-16T06:08:32.540Z,345
2018-08-16T06:09:33.102Z,360
2018-08-16T06:10:33.667Z,365
2018-08-16T06:11:34.232Z,370
2018-08-16T06:12:34.800Z,375
2018-08-16T06:13:35.370Z,385
2018-08-16T06:14:35.944Z,390
2018-08-16T06:15:36.512Z,395
2018-08-16T06:16:37.077Z,405
2018-08-16T06:17:37.644Z,410
2018-08-16T06:18:38.208Z,415
2018-08-16T06:19:38.778Z,420
2018-08-16T06:20:39.350Z,435
2018-08-16T06:21:39.933Z,435
2018-08-16T06:22:40.511Z,440
2018-08-16T06:23:41.078Z,440
2018-08-16T06:24:41.653Z,440
2018-08-16T06:25:42.223Z,445
2018-08-16T06:26:42.795Z,440
2018-08-16T06:27:43.371Z,435
2018-08-16T06:28:43.953Z,460
2018-08-16T06:29:44.518Z,475
2018-08-16T06:30:45.091Z,475
2018-08-16T06:31:45.763Z,490
2018-08-16T06:32:46.266Z,505
2018-08-16T06:33:46.830Z,510
2018-08-16T06:34:47.403Z,510
2018-08-16T06:35:47.979Z,505
2018-08-16T06:36:48.573Z,520
2018-08-16T06:37:49.125Z,535
2018-08-16T06:38:49.751Z,545
2018-08-16T06:39:50.271Z,540
2018-08-16T06:40:50.843Z,530
2018-08-16T06:41:51.415Z,540
2018-08-16T06:42:51.988Z,555
2018-08-16T06:43:52.567Z,565
2018-08-16T06:44:53.143Z,565
2018-08-16T06:45:53.713Z,575
2018-08-16T06:46:54.291Z,505
2018-08-16T06:47:54.864Z,540
2018-08-16T06:48:55.436Z,570
2018-08-16T06:49:56.011Z,575
2018-08-16T06:50:56.576Z,575
2018-08-16T06:51:57.161Z,510
2018-08-16T06:52:57.730Z,545
2018-08-16T06:53:58.310Z,530
2018-08-16T06:54:58.884Z,545
2018-08-16T06:55:59.451Z,575
2018-08-16T06:57:00.028Z,610
2018-08-16T06:58:00.599Z,580
2018-08-16T06:59:01.164Z,660
2018-08-16T07:00:01.741Z,675
2018-08-16T07:01:02.310Z,695
2018-08-16T07:02:02.877Z,665
2018-08-16T07:03:03.451Z,690
2018-08-16T07:04:04.058Z,670
2018-08-16T07:05:04.667Z,645
2018-08-16T07:06:05.252Z,725
2018-08-16T07:07:05.821Z,745
2018-08-16T07:08:06.396Z,750
2018-08-16T07:09:06.991Z,770
2018-08-16T07:10:07.556Z,780
2018-08-16T07:11:08.133Z,785
2018-08-16T07:12:08.800Z,805
2018-08-16T07:13:09.270Z,805
2018-08-16T07:14:09.846Z,825
2018-08-16T07:15:10.428Z,840
2018-08-16T07:16:10.996Z,850
2018-08-16T07:17:11.571Z,790
2018-08-16T07:18:12.145Z,730
2018-08-16T07:19:12.727Z,780
2018-08-16T07:20:13.321Z,810
2018-08-16T07:21:13.892Z,865
2018-08-16T07:22:14.467Z,850
2018-08-16T07:23:15.034Z,810
2018-08-16T07:24:15.611Z,890
2018-08-16T07:25:16.184Z,865
2018-08-16T07:26:16.759Z,840
2018-08-16T07:27:17.330Z,855
2018-08-16T07:28:17.898Z,910
2018-08-16T07:29:18.472Z,925
2018-08-16T07:30:19.047Z,930
2018-08-16T07:31:19.624Z,920
2018-08-16T07:32:20.196Z,955
2018-08-16T07:33:20.791Z,970
2018-08-16T07:34:21.382Z,975
2018-08-16T07:35:21.966Z,990
2018-08-16T07:36:22.734Z,1000
2018-08-16T07:37:23.734Z,1005
2018-08-16T07:38:24.874Z,1000
2018-08-16T07:39:25.705Z,885
2018-08-16T07:40:26.291Z,990
2018-08-16T07:41:26.875Z,1020
2018-08-16T07:42:27.457Z,995
2018-08-16T07:43:28.043Z,1015
2018-08-16T07:44:28.628Z,1045
2018-08-16T07:45:29.268Z,1065
2018-08-16T07:46:29.842Z,1100
2018-08-16T07:47:30.392Z,1130
2018-08-16T07:48:30.976Z,1135
2018-08-16T07:49:31.611Z,1135
2018-08-16T07:50:32.147Z,1140
2018-08-16T07:51:32.947Z,1145
2018-08-16T07:52:33.293Z,1150
2018-08-16T07:53:33.866Z,1190
2018-08-16T07:54:34.460Z,1235
2018-08-16T07:55:35.015Z,1275
2018-08-16T07:56:35.593Z,1275
2018-08-16T07:57:36.179Z,1150
2018-08-16T07:58:36.800Z,995
2018-08-16T07:59:37.346Z,940
2018-08-16T08:00:37.913Z,1135
2018-08-16T08:01:38.488Z,1055
2018-08-16T08:02:39.066Z,1165
2018-08-16T08:03:39.657Z,1215
2018-08-16T08:04:40.425Z,1190
2018-08-16T08:05:41.021Z,1185
2018-08-16T08:06:41.580Z,1145
2018-08-16T08:07:42.153Z,1075
2018-08-16T08:08:42.733Z,1225
2018-08-16T08:09:43.333Z,1360
2018-08-16T08:10:43.930Z,1230
2018-08-16T08:11:44.473Z,1285
2018-08-16T08:12:45.047Z,1350
2018-08-16T08:13:45.626Z,1235
2018-08-16T08:14:46.198Z,1245
2018-08-16T08:15:46.773Z,1215
2018-08-16T08:16:47.359Z,1330
2018-08-16T08:17:47.930Z,1395
2018-08-16T08:18:48.508Z,1185
2018-08-16T08:19:49.084Z,1280
2018-08-16T08:20:49.660Z,1320
2018-08-16T08:21:50.243Z,1245
2018-08-16T08:22:50.814Z,1025
2018-08-16T08:23:51.389Z,885
2018-08-16T08:24:51.967Z,1010
2018-08-16T08:25:52.539Z,970
2018-08-16T08:26:53.109Z,1000
2018-08-16T08:27:53.711Z,1670
2018-08-16T08:28:54.287Z,1645
2018-08-16T08:29:54.873Z,1495
2018-08-16T08:30:55.456Z,750
2018-08-16T08:31:56.014Z,755
2018-08-16T08:32:56.588Z,1565
2018-08-16T08:33:57.174Z,1610
2018-08-16T08:34:57.764Z,1620
2018-08-16T08:35:58.350Z,1725
2018-08-16T08:36:58.901Z,1750
2018-08-16T08:37:59.480Z,1245
2018-08-16T08:39:00.138Z,1000
2018-08-16T08:40:00.620Z,1335
2018-08-16T08:41:01.199Z,1180
2018-08-16T08:42:01.772Z,1600
2018-08-16T08:43:02.550Z,1315
2018-08-16T08:44:03.126Z,900
2018-08-16T08:45:03.698Z,835
2018-08-16T08:46:04.276Z,865
2018-08-16T08:47:04.849Z,820
2018-08-16T08:48:05.422Z,790
2018-08-16T08:49:05.991Z,760
2018-08-16T08:50:06.566Z,1220
2018-08-16T08:51:07.145Z,1510
2018-08-16T08:52:07.757Z,1505
2018-08-16T08:53:08.359Z,1570
2018-08-16T08:54:08.996Z,1620
2018-08-16T08:55:09.577Z,1610
2018-08-16T08:56:10.125Z,1610
2018-08-16T08:57:10.689Z,1645
2018-08-16T08:58:11.316Z,1540
2018-08-16T08:59:11.855Z,1755
2018-08-16T09:00:12.426Z,865
2018-08-16T09:01:13.031Z,710
2018-08-16T09:02:13.660Z,1605
2018-08-16T09:03:14.188Z,900
2018-08-16T09:04:14.768Z,1720
2018-08-16T09:05:15.337Z,1745
2018-08-16T09:06:15.918Z,1730
2018-08-16T09:07:16.492Z,1705
2018-08-16T09:08:17.064Z,1740
2018-08-16T09:09:17.656Z,1695
2018-08-16T09:10:18.225Z,1665
2018-08-16T09:11:18.786Z,1680
2018-08-16T09:12:19.382Z,1780
2018-08-16T09:13:19.946Z,845
2018-08-16T09:14:20.521Z,1000
2018-08-16T09:15:21.094Z,1560
2018-08-16T09:16:21.663Z,1810
2018-08-16T09:17:22.239Z,1865
2018-08-16T09:18:22.817Z,1830
2018-08-16T09:19:23.394Z,1795
2018-08-16T09:20:23.973Z,1770
2018-08-16T09:21:24.547Z,1725
2018-08-16T09:22:25.113Z,1675
2018-08-16T09:23:25.689Z,1860
2018-08-16T09:24:26.276Z,1815
2018-08-16T09:25:26.853Z,1830
2018-08-16T09:26:27.438Z,1750
2018-08-16T09:27:27.997Z,1725
2018-08-16T09:28:28.575Z,1815
2018-08-16T09:29:29.149Z,1770
2018-08-16T09:30:29.723Z,1730
2018-08-16T09:31:31.344Z,1860
2018-08-16T09:32:31.857Z,1980
2018-08-16T09:33:32.432Z,1910
2018-08-16T09:34:33.008Z,1980
2018-08-16T09:35:33.583Z,1925
2018-08-16T09:36:34.155Z,1850
2018-08-16T09:37:34.725Z,1760
2018-08-16T09:38:35.311Z,1790
2018-08-16T09:39:35.992Z,1815
2018-08-16T09:40:36.490Z,1805
2018-08-16T09:41:37.110Z,1750
2018-08-16T09:42:37.697Z,1800
2018-08-16T09:43:38.262Z,1840
2018-08-16T09:44:38.840Z,1825
2018-08-16T09:45:39.498Z,1820
2018-08-16T09:46:39.986Z,1910
2018-08-16T09:47:40.565Z,2020
2018-08-16T09:48:41.131Z,2095
2018-08-16T09:49:41.700Z,2100
2018-08-16T09:50:42.274Z,2090
2018-08-16T09:51:42.877Z,2135
2018-08-16T09:52:43.415Z,2155
2018-08-16T09:53:43.994Z,2185
2018-08-16T09:54:44.569Z,2115
2018-08-16T09:55:45.147Z,2065
2018-08-16T09:56:45.724Z,2055
2018-08-16T09:57:46.302Z,1980
2018-08-16T09:58:46.875Z,2060
2018-08-16T09:59:47.446Z,2155
2018-08-16T10:00:48.017Z,2110
2018-08-16T10:01:48.594Z,2100
2018-08-16T10:02:49.190Z,2095
2018-08-16T10:03:49.781Z,2065
2018-08-16T10:04:50.350Z,2000
2018-08-16T10:05:50.926Z,2035
2018-08-16T10:06:51.502Z,2085
2018-08-16T10:07:52.087Z,2060
2018-08-16T10:08:52.650Z,2160
2018-08-16T10:09:53.231Z,2095
2018-08-16T10:10:53.803Z,2085
2018-08-16T10:11:54.374Z,2040
2018-08-16T10:12:54.953Z,2035
2018-08-16T10:13:55.532Z,2005
2018-08-16T10:14:56.103Z,2165
2018-08-16T10:15:56.680Z,2230
2018-08-16T10:16:57.259Z,2270
2018-08-16T10:17:57.828Z,2215
2018-08-16T10:18:58.397Z,2230
2018-08-16T10:19:58.973Z,2200
2018-08-16T10:20:59.606Z,2185
2018-08-16T10:22:00.106Z,2320
2018-08-16T10:23:00.679Z,2310
2018-08-16T10:24:01.257Z,2205
2018-08-16T10:25:01.830Z,2180
2018-08-16T10:26:02.414Z,2100
2018-08-16T10:27:03.035Z,2135
2018-08-16T10:28:03.549Z,2280
2018-08-16T10:29:04.119Z,2225
2018-08-16T10:30:04.695Z,2225
2018-08-16T10:31:05.287Z,2135
2018-08-16T10:32:05.867Z,2210
2018-08-16T10:33:06.501Z,2355
2018-08-16T10:34:07.049Z,2455
2018-08-16T10:35:07.624Z,2265
2018-08-16T10:36:08.200Z,2245
2018-08-16T10:37:08.825Z,2090
2018-08-16T10:38:09.343Z,2065
2018-08-16T10:39:09.913Z,1970
2018-08-16T10:40:10.494Z,2135
2018-08-16T10:41:11.066Z,2070
2018-08-16T10:42:11.642Z,2055
2018-08-16T10:43:12.214Z,2000
2018-08-16T10:44:12.789Z,2350
2018-08-16T10:45:13.361Z,2460
2018-08-16T10:46:13.958Z,2365
2018-08-16T10:47:14.532Z,2055
2018-08-16T10:48:15.113Z,2000
2018-08-16T10:49:15.683Z,2160
2018-08-16T10:50:16.259Z,2085
2018-08-16T10:51:16.834Z,2230
2018-08-16T10:52:17.429Z,2355
2018-08-16T10:53:17.990Z,2555
2018-08-16T10:54:18.567Z,2420
2018-08-16T10:55:19.147Z,2185
2018-08-16T10:56:19.721Z,2180
2018-08-16T10:57:20.292Z,2390
2018-08-16T10:58:20.874Z,2320
2018-08-16T10:59:21.443Z,2465
2018-08-16T11:00:22.018Z,2545
2018-08-16T11:01:22.684Z,2520
2018-08-16T11:02:23.162Z,2640
2018-08-16T11:03:23.747Z,2535
2018-08-16T11:04:24.317Z,2365
2018-08-16T11:05:24.889Z,2350
2018-08-16T11:06:25.502Z,2450
2018-08-16T11:07:26.065Z,2745
2018-08-16T11:08:26.638Z,2805
2018-08-16T11:09:27.241Z,2710
2018-08-16T11:10:27.793Z,2725
2018-08-16T11:11:28.365Z,2645
2018-08-16T11:12:28.942Z,2600
2018-08-16T11:13:29.517Z,2570
2018-08-16T11:14:30.092Z,2515
2018-08-16T11:15:30.675Z,2595
2018-08-16T11:16:31.253Z,2280
2018-08-16T11:17:31.846Z,2295
2018-08-16T11:18:32.432Z,2340
2018-08-16T11:19:32.990Z,2295
2018-08-16T11:20:33.559Z,2325
2018-08-16T11:21:34.144Z,2395
2018-08-16T11:22:34.711Z,2535
2018-08-16T11:23:35.299Z,2200
2018-08-16T11:24:35.863Z,2240
2018-08-16T11:25:36.439Z,2190
2018-08-16T11:26:37.013Z,2200
2018-08-16T11:27:37.580Z,2270
2018-08-16T11:28:38.160Z,2355
2018-08-16T11:29:38.733Z,2535
2018-08-16T11:30:39.311Z,2735
2018-08-16T11:31:39.875Z,2560
2018-08-16T11:32:40.448Z,2425
2018-08-16T11:33:41.063Z,2565
2018-08-16T11:34:41.602Z,2345
2018-08-16T11:35:42.168Z,2675
2018-08-16T11:36:42.754Z,2650
2018-08-16T11:37:43.331Z,2715
2018-08-16T11:38:43.895Z,2545
2018-08-16T11:39:44.463Z,2250
2018-08-16T11:40:45.066Z,2230
2018-08-16T11:41:45.607Z,2315
2018-08-16T11:42:46.178Z,2525
2018-08-16T11:43:46.747Z,2405
2018-08-16T11:44:47.352Z,2515
2018-08-16T11:45:47.934Z,2420
2018-08-16T11:46:48.521Z,2525
2018-08-16T11:47:49.091Z,2600
2018-08-16T11:48:49.671Z,2665
2018-08-16T11:49:50.249Z,2625
2018-08-16T11:50:50.825Z,2600
2018-08-16T11:51:51.403Z,2585
2018-08-16T11:52:51.969Z,2565
2018-08-16T11:53:52.544Z,2570
2018-08-16T11:54:53.120Z,2435
2018-08-16T11:55:53.695Z,2490
2018-08-16T11:56:54.273Z,2435
2018-08-16T11:57:54.851Z,2430
2018-08-16T11:58:55.426Z,2715
2018-08-16T11:59:56.123Z,2720
2018-08-16T12:00:56.639Z,2680
2018-08-16T12:01:57.223Z,2360
2018-08-16T12:02:57.794Z,2585
2018-08-16T12:03:58.368Z,2685
2018-08-16T12:04:58.947Z,2835
2018-08-16T12:05:59.515Z,2735
2018-08-16T12:07:00.094Z,2655
2018-08-16T12:08:00.667Z,2620
2018-08-16T12:09:01.246Z,2840
2018-08-16T12:10:01.827Z,2915
2018-08-16T12:11:02.404Z,2890
2018-08-16T12:12:02.975Z,2660
2018-08-16T12:13:03.542Z,2870
2018-08-16T12:14:04.110Z,2545
2018-08-16T12:15:04.725Z,2275
2018-08-16T12:16:05.249Z,2345
2018-08-16T12:17:05.830Z,2385
2018-08-16T12:18:06.436Z,2360
2018-08-16T12:19:06.985Z,2710
2018-08-16T12:20:07.560Z,2725
2018-08-16T12:21:08.185Z,2800
2018-08-16T12:22:08.710Z,2560
2018-08-16T12:23:09.278Z,2635
2018-08-16T12:24:09.856Z,2740
2018-08-16T12:25:10.430Z,2780
2018-08-16T12:26:11.014Z,2785
2018-08-16T12:27:11.576Z,2600
2018-08-16T12:28:12.152Z,2520
2018-08-16T12:29:12.729Z,2360
2018-08-16T12:30:13.305Z,2610
2018-08-16T12:31:13.880Z,2595
2018-08-16T12:32:14.451Z,2600
2018-08-16T12:33:15.023Z,2770
2018-08-16T12:34:15.615Z,2665
2018-08-16T12:35:16.219Z,2540
2018-08-16T12:36:16.784Z,2560
2018-08-16T12:37:17.365Z,2770
2018-08-16T12:38:17.940Z,2350
2018-08-16T12:39:18.518Z,2255
2018-08-16T12:40:19.092Z,2345
2018-08-16T12:41:19.671Z,2185
2018-08-16T12:42:20.318Z,2105
2018-08-16T12:43:20.813Z,1490
2018-08-16T12:44:21.381Z,1185
2018-08-16T12:45:21.951Z,1040
2018-08-16T12:46:22.531Z,985
2018-08-16T12:47:23.190Z,955
2018-08-16T12:48:23.675Z,935
2018-08-16T12:49:24.307Z,935
2018-08-16T12:50:24.898Z,920
2018-08-16T12:51:25.461Z,910
2018-08-16T12:52:26.033Z,905
2018-08-16T12:53:26.615Z,900
2018-08-16T12:54:27.175Z,890
2018-08-16T12:55:27.752Z,885
2018-08-16T12:56:28.342Z,885
2018-08-16T12:57:28.902Z,965
2018-08-16T12:58:29.474Z,1110
2018-08-16T12:59:30.051Z,1655
2018-08-16T13:00:30.625Z,2185
2018-08-16T13:01:31.205Z,2370
2018-08-16T13:02:31.782Z,2370
2018-08-16T13:03:32.360Z,2470
2018-08-16T13:04:32.938Z,2495
2018-08-16T13:05:33.516Z,2535
2018-08-16T13:06:34.094Z,2575
2018-08-16T13:07:34.669Z,2630
2018-08-16T13:08:35.242Z,2545
2018-08-16T13:09:35.809Z,2525
2018-08-16T13:11:36.954Z,2400
2018-08-16T13:12:37.526Z,2365
2018-08-16T13:13:38.088Z,2395
2018-08-16T13:14:38.654Z,2240
2018-08-16T13:15:39.223Z,2155
2018-08-16T13:16:39.799Z,2155
2018-08-16T13:17:40.379Z,2185
2018-08-16T13:18:40.955Z,2160
2018-08-16T13:19:41.529Z,2485
2018-08-16T13:20:42.111Z,2520
2018-08-16T13:21:42.715Z,2630
2018-08-16T13:22:43.268Z,2650
2018-08-16T13:23:43.885Z,2690
2018-08-16T13:24:44.395Z,2635
2018-08-16T13:25:45.010Z,2620
2018-08-16T13:26:45.552Z,2490
2018-08-16T13:27:46.216Z,2385
2018-08-16T13:28:46.708Z,2415
2018-08-16T13:29:47.297Z,2325
2018-08-16T13:30:47.865Z,2485
2018-08-16T13:31:48.440Z,2495
2018-08-16T13:32:49.013Z,2290
2018-08-16T13:33:49.589Z,2275
2018-08-16T13:34:50.164Z,2230
2018-08-16T13:35:50.746Z,2210
2018-08-16T13:36:51.333Z,2210
2018-08-16T13:37:51.889Z,2150
2018-08-16T13:38:52.459Z,2130
2018-08-16T13:39:53.034Z,1805
2018-08-16T13:40:53.616Z,1840
2018-08-16T13:41:54.186Z,1725
2018-08-16T13:42:54.764Z,1830
2018-08-16T13:43:55.342Z,1900
2018-08-16T13:44:55.905Z,2220
2018-08-16T13:45:56.489Z,2180
2018-08-16T13:46:57.067Z,2155
2018-08-16T13:47:57.640Z,2170
2018-08-16T13:48:58.218Z,2285
2018-08-16T13:49:58.787Z,2005
2018-08-16T13:50:59.364Z,1840
2018-08-16T13:51:59.944Z,1925
2018-08-16T13:53:00.519Z,1985
2018-08-16T13:54:01.088Z,2085
2018-08-16T13:55:01.689Z,2075
2018-08-16T13:56:02.234Z,2170
2018-08-16T13:57:02.801Z,2090
2018-08-16T13:58:03.376Z,2195
2018-08-16T13:59:03.956Z,2325
2018-08-16T14:00:04.529Z,2410
2018-08-16T14:01:05.117Z,2350
2018-08-16T14:02:05.670Z,2270